createdAt,value
2023-05-06T00:03:02.888Z,4.05
2023-05-06T00:07:54.793Z,3.88
2023-05-06T00:12:46.652Z,3.00
2023-05-06T00:17:38.630Z,4.85
2023-05-06T00:22:30.496Z,4.18
2023-05-06T00:27:22.310Z,3.45
2023-05-06T00:32:14.902Z,3.60
2023-05-06T00:37:06.717Z,5.07
2023-05-06T00:42:04.441Z,8.30
2023-05-06T00:46:57.274Z,3.40
2023-05-06T00:51:49.302Z,3.83
2023-05-06T00:56:42.095Z,4.00
2023-05-06T01:01:34.123Z,3.20
2023-05-06T01:06:57.515Z,3.88
2023-05-06T01:12:17.332Z,4.60
2023-05-06T01:17:11.917Z,4.18
2023-05-06T01:22:06.095Z,3.50
2023-05-06T01:26:57.899Z,3.55
2023-05-06T01:31:52.517Z,16.42
2023-05-06T01:36:49.821Z,3.78
2023-05-06T01:41:42.405Z,6.53
2023-05-06T01:46:36.285Z,3.22
2023-05-06T01:51:28.207Z,4.05
2023-05-06T01:56:20.017Z,4.20
2023-05-06T02:01:11.970Z,4.00
2023-05-06T02:06:05.151Z,3.13
2023-05-06T02:11:01.734Z,4.55
2023-05-06T02:15:54.953Z,4.32
2023-05-06T02:20:47.760Z,3.97
2023-05-06T02:25:41.151Z,4.13
2023-05-06T02:30:33.020Z,3.78
2023-05-06T02:35:24.835Z,5.80
2023-05-06T02:40:16.678Z,3.80
2023-05-06T02:45:09.144Z,3.58
2023-05-06T02:50:01.199Z,5.50
2023-05-06T02:54:53.033Z,4.97
2023-05-06T02:59:44.851Z,3.60
2023-05-06T03:04:36.684Z,3.20
2023-05-06T03:09:28.641Z,3.38
2023-05-06T03:14:20.909Z,8.18
2023-05-06T03:19:13.007Z,4.95
2023-05-06T03:24:06.370Z,4.47
2023-05-06T03:28:59.416Z,3.30
2023-05-06T03:33:51.488Z,4.25
2023-05-06T03:38:44.222Z,3.80
2023-05-06T03:43:36.390Z,4.07
2023-05-06T03:48:29.731Z,4.25
2023-05-06T03:53:21.824Z,3.67
2023-05-06T03:58:15.220Z,6.03
2023-05-06T04:03:09.693Z,5.07
2023-05-06T04:08:08.730Z,5.63
2023-05-06T04:13:01.012Z,3.80
2023-05-06T04:17:59.010Z,4.53
2023-05-06T04:22:51.234Z,8.23
2023-05-06T04:27:43.378Z,7.10
2023-05-06T04:32:36.785Z,6.80
2023-05-06T04:37:31.049Z,3.72
2023-05-06T04:42:45.687Z,5.35
2023-05-06T04:47:43.047Z,5.20
2023-05-06T04:52:36.433Z,4.30
2023-05-06T04:57:28.948Z,5.40
2023-05-06T05:02:22.062Z,8.52
2023-05-06T05:07:14.856Z,4.03
2023-05-06T05:12:07.311Z,4.78
2023-05-06T05:17:03.243Z,4.28
2023-05-06T05:21:55.268Z,4.72
2023-05-06T05:26:48.936Z,3.88
2023-05-06T05:31:42.164Z,5.38
2023-05-06T05:36:34.219Z,3.42
2023-05-06T05:41:28.985Z,3.78
2023-05-06T05:46:21.182Z,3.83
2023-05-06T05:51:14.628Z,3.10
2023-05-06T05:56:07.656Z,3.50
2023-05-06T06:00:59.636Z,5.70
2023-05-06T06:05:53.335Z,3.05
2023-05-06T06:10:45.221Z,2.72
2023-05-06T06:15:42.642Z,3.65
2023-05-06T06:20:35.590Z,3.55
2023-05-06T06:25:27.714Z,2.63
2023-05-06T06:30:19.703Z,3.10
2023-05-06T06:35:11.777Z,3.20
2023-05-06T06:40:03.909Z,3.30
2023-05-06T06:44:55.770Z,3.72
2023-05-06T06:49:47.553Z,2.53
2023-05-06T06:54:39.389Z,2.92
2023-05-06T06:59:31.244Z,4.57
2023-05-06T07:04:25.085Z,2.40
2023-05-06T07:09:17.131Z,2.30
2023-05-06T07:14:09.099Z,2.60
2023-05-06T07:19:01.625Z,2.33
2023-05-06T07:23:53.617Z,3.25
2023-05-06T07:28:45.384Z,2.78
2023-05-06T07:33:37.230Z,4.20
2023-05-06T07:38:29.038Z,2.70
2023-05-06T07:43:22.400Z,4.22
2023-05-06T07:48:14.256Z,6.53
2023-05-06T07:53:06.095Z,3.83
2023-05-06T07:57:57.992Z,7.97
2023-05-06T08:02:49.872Z,7.55
2023-05-06T08:07:44.736Z,7.35
2023-05-06T08:12:36.908Z,9.13
2023-05-06T08:17:28.790Z,40.75
2023-05-06T08:22:20.697Z,19.15
2023-05-06T08:27:12.492Z,49.65
2023-05-06T08:32:04.513Z,31.40
2023-05-06T08:36:57.031Z,20.58
2023-05-06T08:41:52.490Z,21.35
2023-05-06T08:46:45.369Z,20.40
2023-05-06T08:51:38.329Z,24.85
2023-05-06T08:56:34.034Z,21.30
2023-05-06T09:01:29.406Z,24.63
2023-05-06T09:06:21.630Z,25.77
2023-05-06T09:11:28.761Z,21.98
2023-05-06T09:16:30.825Z,25.77
2023-05-06T09:21:29.649Z,28.15
2023-05-06T09:26:23.464Z,26.35
2023-05-06T09:31:16.179Z,20.42
2023-05-06T09:36:08.311Z,25.50
2023-05-06T09:41:00.152Z,20.25
2023-05-06T09:45:52.137Z,20.30
2023-05-06T09:50:44.427Z,24.45
2023-05-06T09:55:37.574Z,24.25
2023-05-06T10:00:31.498Z,21.45
2023-05-06T10:05:25.635Z,36.38
2023-05-06T10:10:17.544Z,30.92
2023-05-06T10:15:10.103Z,30.90
2023-05-06T10:20:05.100Z,27.33
2023-05-06T10:25:05.930Z,22.20
2023-05-06T10:29:59.907Z,23.77
2023-05-06T10:34:55.743Z,20.52
2023-05-06T10:39:48.341Z,20.33
2023-05-06T10:45:04.035Z,23.25
2023-05-06T10:50:21.712Z,19.77
2023-05-06T10:55:27.494Z,18.08
2023-05-06T11:00:19.503Z,16.75
2023-05-06T11:05:11.474Z,16.17
2023-05-06T11:10:08.455Z,15.32
2023-05-06T11:15:20.136Z,16.48
2023-05-06T11:20:18.896Z,19.02
2023-05-06T11:25:10.802Z,23.38
2023-05-06T11:30:03.054Z,13.65
2023-05-06T11:34:56.581Z,13.85
2023-05-06T11:39:49.265Z,14.10
2023-05-06T11:44:41.091Z,15.05
2023-05-06T11:49:38.686Z,13.43
2023-05-06T11:54:35.124Z,16.40
2023-05-06T11:59:32.344Z,16.63
2023-05-06T12:04:24.325Z,17.75
2023-05-06T12:09:16.625Z,20.40
2023-05-06T12:14:10.423Z,18.58
2023-05-06T12:19:02.930Z,12.13
2023-05-06T12:24:00.291Z,13.48
2023-05-06T12:29:07.164Z,10.57
2023-05-06T12:34:01.018Z,10.23
2023-05-06T12:38:55.354Z,9.27
2023-05-06T12:43:47.744Z,6.03
2023-05-06T12:48:39.746Z,8.45
2023-05-06T12:53:33.766Z,8.82
2023-05-06T12:58:25.918Z,7.47
2023-05-06T13:03:19.528Z,7.32
2023-05-06T13:08:11.686Z,10.18
2023-05-06T13:13:03.592Z,8.43
2023-05-06T13:17:57.423Z,8.48
2023-05-06T13:22:54.648Z,9.73
2023-05-06T13:27:47.030Z,8.77
2023-05-06T13:32:38.882Z,8.95
2023-05-06T13:37:30.729Z,8.32
2023-05-06T13:42:22.555Z,9.18
2023-05-06T13:47:15.063Z,8.95
2023-05-06T13:52:08.410Z,8.93
2023-05-06T13:57:01.615Z,7.72
2023-05-06T14:01:56.009Z,11.05
2023-05-06T14:06:48.005Z,8.07
2023-05-06T14:11:39.782Z,7.07
2023-05-06T14:16:31.605Z,7.40
2023-05-06T14:21:23.522Z,7.18
2023-05-06T14:26:15.419Z,7.00
2023-05-06T14:31:07.241Z,8.15
2023-05-06T14:36:00.318Z,7.35
2023-05-06T14:40:52.101Z,8.95
2023-05-06T14:45:43.975Z,7.20
2023-05-06T14:50:35.824Z,8.18
2023-05-06T14:55:27.672Z,7.07
2023-05-06T15:00:20.584Z,11.27
2023-05-06T15:05:13.993Z,8.07
2023-05-06T15:10:06.314Z,8.95
2023-05-06T15:14:58.206Z,9.05
2023-05-06T15:19:50.057Z,7.20
2023-05-06T15:24:41.932Z,7.88
2023-05-06T15:29:33.804Z,7.63
2023-05-06T15:34:25.830Z,7.65
2023-05-06T15:39:18.372Z,10.02
2023-05-06T15:44:11.538Z,7.68
2023-05-06T15:49:29.662Z,7.18
2023-05-06T15:54:18.476Z,7.60
2023-05-06T15:59:10.487Z,8.70
2023-05-06T16:04:02.644Z,6.80
2023-05-06T16:08:54.537Z,7.18
2023-05-06T16:13:46.790Z,6.78
2023-05-06T16:18:38.632Z,6.65
2023-05-06T16:23:31.514Z,10.40
2023-05-06T16:28:24.219Z,9.80
2023-05-06T16:33:16.088Z,7.68
2023-05-06T16:38:08.051Z,7.30
2023-05-06T16:42:59.974Z,7.35
2023-05-06T16:47:51.884Z,7.30
2023-05-06T16:52:43.717Z,7.13
2023-05-06T16:57:35.568Z,8.20
2023-05-06T17:02:27.441Z,8.10
2023-05-06T17:07:19.532Z,10.68
2023-05-06T17:12:11.418Z,8.98
2023-05-06T17:17:05.530Z,7.50
2023-05-06T17:21:57.897Z,8.57
2023-05-06T17:26:49.744Z,8.93
2023-05-06T17:31:41.533Z,7.80
2023-05-06T17:36:33.327Z,11.02
2023-05-06T17:41:25.145Z,8.77
2023-05-06T17:46:19.685Z,9.20
2023-05-06T17:51:11.631Z,10.35
2023-05-06T17:56:04.216Z,8.77
2023-05-06T18:00:56.046Z,9.15
2023-05-06T18:05:47.902Z,10.30
2023-05-06T18:10:41.218Z,10.35
2023-05-06T18:15:33.367Z,8.07
2023-05-06T18:20:25.226Z,11.95
2023-05-06T18:25:17.045Z,11.40
2023-05-06T18:30:09.137Z,10.60
2023-05-06T18:35:00.948Z,14.65
2023-05-06T18:39:52.875Z,12.93
2023-05-06T18:44:44.705Z,11.68
2023-05-06T18:49:36.712Z,20.60
2023-05-06T18:54:28.530Z,12.48
2023-05-06T18:59:20.612Z,12.77
2023-05-06T19:04:12.709Z,11.50
2023-05-06T19:09:05.930Z,12.23
2023-05-06T19:13:57.765Z,11.32
2023-05-06T19:18:49.593Z,11.40
2023-05-06T19:23:41.748Z,13.13
2023-05-06T19:28:33.705Z,10.13
2023-05-06T19:33:26.346Z,11.27
2023-05-06T19:38:18.212Z,14.48
2023-05-06T19:43:10.008Z,12.35
2023-05-06T19:48:04.351Z,15.18
2023-05-06T19:52:56.268Z,18.63
2023-05-06T19:57:48.026Z,22.25
2023-05-06T20:02:40.461Z,21.50
2023-05-06T20:07:33.717Z,22.70
2023-05-06T20:12:28.711Z,25.88
2023-05-06T20:17:21.146Z,28.10
2023-05-06T20:22:13.275Z,27.25
2023-05-06T20:27:05.147Z,25.23
2023-05-06T20:31:56.932Z,22.70
2023-05-06T20:36:50.075Z,26.88
2023-05-06T20:41:41.865Z,24.88
2023-05-06T20:46:33.681Z,23.02
2023-05-06T20:51:26.404Z,20.98
2023-05-06T20:56:26.006Z,21.60
2023-05-06T21:01:18.344Z,18.63
2023-05-06T21:06:10.374Z,19.17
2023-05-06T21:11:02.276Z,16.80
2023-05-06T21:15:54.076Z,17.38
2023-05-06T21:20:45.969Z,18.42
2023-05-06T21:25:37.830Z,21.13
2023-05-06T21:30:29.623Z,26.20
2023-05-06T21:35:22.724Z,24.98
2023-05-06T21:40:14.656Z,22.90
2023-05-06T21:45:07.140Z,19.00
2023-05-06T21:49:59.017Z,19.80
2023-05-06T21:54:50.875Z,19.92
2023-05-06T21:59:42.845Z,21.88
2023-05-06T22:04:34.732Z,19.05
2023-05-06T22:09:26.581Z,15.90
2023-05-06T22:14:21.968Z,10.35
2023-05-06T22:19:16.291Z,8.32
2023-05-06T22:24:08.221Z,7.93
2023-05-06T22:29:00.035Z,9.07
2023-05-06T22:33:55.659Z,12.65
2023-05-06T22:38:47.636Z,8.48
2023-05-06T22:43:39.379Z,9.20
2023-05-06T22:48:31.972Z,8.73
2023-05-06T22:53:24.619Z,7.95
2023-05-06T22:58:16.488Z,6.95
2023-05-06T23:03:08.346Z,7.78
2023-05-06T23:08:00.143Z,5.63
2023-05-06T23:12:51.948Z,3.65
2023-05-06T23:17:43.844Z,3.85
2023-05-06T23:22:35.861Z,3.20
2023-05-06T23:27:27.682Z,3.00
2023-05-06T23:32:19.428Z,3.08
2023-05-06T23:37:12.192Z,4.15
2023-05-06T23:42:04.244Z,4.25
2023-05-06T23:46:56.228Z,2.58
2023-05-06T23:51:48.131Z,3.00
2023-05-06T23:56:39.893Z,3.58
